createdAt,value
2022-09-18T00:00:53.416Z,13.20
2022-09-18T00:03:21.528Z,13.30
2022-09-18T00:05:50.764Z,13.30
2022-09-18T00:08:18.552Z,13.30
2022-09-18T00:10:47.660Z,13.40
2022-09-18T00:13:16.247Z,13.50
2022-09-18T00:15:44.101Z,13.50
2022-09-18T00:18:11.926Z,13.50
2022-09-18T00:20:39.933Z,13.50
2022-09-18T00:23:09.047Z,13.60
2022-09-18T00:25:36.865Z,13.60
2022-09-18T00:28:04.796Z,13.50
2022-09-18T00:30:33.085Z,13.40
2022-09-18T00:33:00.854Z,13.40
2022-09-18T13:13:16.003Z,17.00
2022-09-18T13:15:46.013Z,17.00
2022-09-18T13:18:28.696Z,17.30
2022-09-18T13:20:59.288Z,17.30
2022-09-18T13:23:30.802Z,17.30
2022-09-18T13:26:00.426Z,17.40
2022-09-18T13:28:30.181Z,17.60
2022-09-18T13:31:29.399Z,17.80
2022-09-18T13:33:59.979Z,17.80
2022-09-18T13:36:31.867Z,17.80
2022-09-18T13:39:02.972Z,17.90
2022-09-18T13:41:43.231Z,17.90
2022-09-18T13:44:20.532Z,18.10
2022-09-18T13:46:50.462Z,18.20
2022-09-18T13:49:28.695Z,18.40
2022-09-18T13:51:57.262Z,18.20
2022-09-18T13:54:29.041Z,18.10
2022-09-18T13:57:21.499Z,17.90
2022-09-18T13:59:53.542Z,17.80
2022-09-18T14:02:28.035Z,17.60
2022-09-18T14:05:28.757Z,17.50
2022-09-18T14:08:00.226Z,17.60
2022-09-18T14:10:31.577Z,17.50
2022-09-18T14:13:36.071Z,17.40
2022-09-18T14:16:14.949Z,17.30
2022-09-18T14:18:57.324Z,17.20
2022-09-18T14:21:31.897Z,17.20
2022-09-18T14:24:36.821Z,17.10
2022-09-18T14:27:36.654Z,17.10
2022-09-18T14:30:18.095Z,17.10
2022-09-18T14:33:05.138Z,17.00
2022-09-18T14:35:47.714Z,17.10
2022-09-18T14:38:27.679Z,17.10
2022-09-18T14:41:00.551Z,17.10
2022-09-18T14:43:31.705Z,17.00
2022-09-18T14:45:59.844Z,17.00
2022-09-18T14:48:32.339Z,17.10
2022-09-18T14:51:03.024Z,17.00
2022-09-18T14:53:31.706Z,16.90
2022-09-18T14:56:02.616Z,16.90
2022-09-18T14:58:35.530Z,17.00
2022-09-18T15:01:05.229Z,17.00
2022-09-18T15:03:42.991Z,17.00
2022-09-18T15:06:17.333Z,17.00
2022-09-18T15:08:48.635Z,16.90
2022-09-18T15:11:18.968Z,16.90
2022-09-18T15:13:48.198Z,16.80
2022-09-18T15:16:20.328Z,16.80
2022-09-18T15:18:50.381Z,16.70
2022-09-18T15:21:24.285Z,16.70
2022-09-18T15:23:52.632Z,16.60
2022-09-18T15:26:23.628Z,16.30
2022-09-18T15:28:53.037Z,16.30
2022-09-18T15:31:22.889Z,16.30
2022-09-18T15:33:56.295Z,16.20
2022-09-18T15:36:28.117Z,16.10
2022-09-18T15:38:57.785Z,16.00
2022-09-18T15:41:35.157Z,15.90
2022-09-18T15:44:03.934Z,15.70
2022-09-18T15:46:34.027Z,15.70
2022-09-18T15:49:24.276Z,15.60
2022-09-18T15:51:52.328Z,15.60
2022-09-18T15:54:28.112Z,15.50
2022-09-18T15:56:58.163Z,15.60
2022-09-18T15:59:30.775Z,15.60
2022-09-18T16:01:59.826Z,15.60
2022-09-18T16:04:33.013Z,15.70
2022-09-18T16:07:04.433Z,15.70
2022-09-18T16:09:40.312Z,15.70
2022-09-18T16:12:28.335Z,15.50
2022-09-18T16:15:21.273Z,15.60
2022-09-18T16:17:58.060Z,15.60
2022-09-18T16:20:43.009Z,15.40
2022-09-18T16:23:20.659Z,15.20
2022-09-18T16:26:05.953Z,15.10
2022-09-18T16:28:36.500Z,15.30
2022-09-18T16:31:05.044Z,15.30
2022-09-18T16:33:35.203Z,15.40
2022-09-18T16:36:07.814Z,15.30
2022-09-18T16:38:36.412Z,15.30
2022-09-18T16:41:04.465Z,15.30
2022-09-18T16:43:32.479Z,15.30
2022-09-18T16:46:00.614Z,15.30
2022-09-18T16:48:29.393Z,15.40
2022-09-18T16:50:57.430Z,15.40
2022-09-18T16:53:26.910Z,15.30
2022-09-18T16:55:57.494Z,15.30
2022-09-18T16:58:28.984Z,15.10
2022-09-18T17:00:57.833Z,15.00
2022-09-18T17:03:27.491Z,15.00
2022-09-18T17:05:55.620Z,14.90
2022-09-18T17:08:24.246Z,15.00
2022-09-18T17:10:53.635Z,14.80
2022-09-18T17:13:22.332Z,14.90
2022-09-18T17:15:50.619Z,14.90
2022-09-18T17:18:18.672Z,14.80
2022-09-18T17:20:46.992Z,14.70
2022-09-18T17:23:15.413Z,14.80
2022-09-18T17:25:43.442Z,14.80
2022-09-18T17:28:13.000Z,14.80
2022-09-18T17:30:42.412Z,14.80
2022-09-18T17:33:10.717Z,14.80
2022-09-18T17:35:38.907Z,14.80
2022-09-18T17:38:06.968Z,14.70
2022-09-18T17:40:34.990Z,14.70
2022-09-18T17:43:03.141Z,14.60
2022-09-18T17:45:33.812Z,14.60
2022-09-18T17:48:02.046Z,14.50
2022-09-18T17:50:30.071Z,14.50
2022-09-18T17:52:58.132Z,14.40
2022-09-18T17:55:26.277Z,14.50
2022-09-18T17:57:54.315Z,14.50
2022-09-18T18:00:22.350Z,14.40
2022-09-18T18:02:52.142Z,14.40
2022-09-18T18:05:20.218Z,14.50
2022-09-18T18:07:48.247Z,14.50
2022-09-18T18:10:16.352Z,14.40
2022-09-18T18:12:44.401Z,14.30
2022-09-18T18:15:12.455Z,14.20
2022-09-18T18:17:41.983Z,14.20
2022-09-18T18:20:11.932Z,14.10
2022-09-18T18:22:39.988Z,14.20
2022-09-18T18:25:09.530Z,14.20
2022-09-18T18:27:37.639Z,14.20
2022-09-18T18:30:06.892Z,14.20
2022-09-18T18:32:35.632Z,14.20
2022-09-18T18:35:03.760Z,14.20
2022-09-18T18:37:35.136Z,14.20
2022-09-18T18:40:03.771Z,14.30
2022-09-18T18:42:32.592Z,14.20
2022-09-18T18:45:01.091Z,14.20
2022-09-18T18:47:29.887Z,14.20
2022-09-18T18:49:58.063Z,14.20
2022-09-18T18:52:26.773Z,14.20
2022-09-18T18:54:56.172Z,14.20
2022-09-18T18:57:24.258Z,14.20
2022-09-18T18:59:52.328Z,14.20
2022-09-18T19:02:20.375Z,14.20
2022-09-18T19:04:48.426Z,14.20
2022-09-18T19:07:17.581Z,14.30
2022-09-18T19:09:45.611Z,14.20
2022-09-18T19:12:17.365Z,14.20
2022-09-18T19:14:45.513Z,14.20
2022-09-18T19:17:14.647Z,14.20
2022-09-18T19:19:43.387Z,14.20
2022-09-18T19:22:17.838Z,14.20
2022-09-18T19:24:46.050Z,14.10
2022-09-18T19:27:15.478Z,14.20
2022-09-18T19:29:43.512Z,14.10
2022-09-18T19:32:11.985Z,14.20
2022-09-18T19:34:40.185Z,14.20
2022-09-18T19:37:11.799Z,14.10
2022-09-18T19:39:41.047Z,14.00
2022-09-18T19:42:12.393Z,14.00
2022-09-18T19:44:44.368Z,14.00
2022-09-18T19:47:18.421Z,14.00
2022-09-18T19:49:47.098Z,13.80
2022-09-18T19:52:19.053Z,13.70
2022-09-18T19:54:47.516Z,13.70
2022-09-18T19:57:16.081Z,13.70
2022-09-18T19:59:47.038Z,13.70
2022-09-18T20:02:17.444Z,13.80
2022-09-18T20:04:45.619Z,13.80
2022-09-18T20:07:13.891Z,13.80
2022-09-18T20:09:42.111Z,13.90
2022-09-18T20:12:10.649Z,13.90
2022-09-18T20:14:38.717Z,13.80
2022-09-18T20:17:08.599Z,13.60
2022-09-18T20:19:37.009Z,13.50
2022-09-18T20:22:05.171Z,13.40
2022-09-18T20:24:33.663Z,13.40
2022-09-18T20:27:02.135Z,13.30
2022-09-18T20:29:30.512Z,13.30
2022-09-18T20:31:58.636Z,13.30
2022-09-18T20:34:28.024Z,13.20
2022-09-18T20:36:56.036Z,13.10
2022-09-18T20:39:24.086Z,13.10
2022-09-18T20:41:52.152Z,13.00
2022-09-18T20:44:20.959Z,13.00
2022-09-18T20:46:49.144Z,13.00
2022-09-18T20:49:18.186Z,12.90
2022-09-18T20:51:47.540Z,13.00
2022-09-18T20:54:16.591Z,13.10
2022-09-18T20:56:44.730Z,13.00
2022-09-18T20:59:16.562Z,12.90
2022-09-18T21:01:45.421Z,12.80
2022-09-18T21:04:17.355Z,12.80
2022-09-18T21:06:48.910Z,12.80
2022-09-18T21:09:16.946Z,12.80
2022-09-18T21:11:45.850Z,12.80
2022-09-18T21:14:16.552Z,12.80
2022-09-18T21:16:45.006Z,12.70
2022-09-18T21:19:14.191Z,12.60
2022-09-18T21:21:42.228Z,12.70
2022-09-18T21:24:11.677Z,12.60
2022-09-18T21:26:42.882Z,12.60
